Time;durP1;ratioP1;P1;durP2;ratioP2;P2;SDS_P1;SDS_P2;PMS_P1;PMS_P2;Temp;Humidity;BMP_temperature;BMP_pressure;BME280_temperature;BME280_humidity;BME280_pressure;Samples;Min_cycle;Max_cycle;Signal;HPM_P1;HPM_P2
2022/12/10 00:02:07;;;;;;;29.50;15.57;;;;;;;-1.14;100.00;100220.78;4922349;29;20056;-42
2022/12/10 00:04:34;;;;;;;36.08;16.40;;;;;;;-1.14;100.00;100222.69;4930004;29;20126;-44
2022/12/10 00:07:01;;;;;;;34.90;15.25;;;;;;;-1.14;100.00;100225.38;4929333;29;20055;-42
2022/12/10 00:09:38;;;;;;;32.85;13.80;;;;;;;-1.15;100.00;100213.72;4929528;29;20130;-42
2022/12/10 00:12:05;;;;;;;34.88;15.57;;;;;;;-1.12;100.00;100212.34;4929423;29;20075;-46
2022/12/10 00:14:31;;;;;;;31.30;14.75;;;;;;;-1.09;100.00;100207.16;4913128;29;20051;-42
2022/12/10 00:16:58;;;;;;;31.48;13.73;;;;;;;-1.05;100.00;100210.09;4929157;29;20051;-43
2022/12/10 00:19:25;;;;;;;33.42;14.07;;;;;;;-1.01;100.00;100212.00;4927794;29;20040;-42
2022/12/10 00:21:51;;;;;;;35.13;15.15;;;;;;;-0.98;100.00;100208.69;4929766;29;20402;-42
2022/12/10 00:24:18;;;;;;;31.23;15.18;;;;;;;-0.96;100.00;100216.56;4929867;29;20039;-44
2022/12/10 00:26:45;;;;;;;30.58;13.52;;;;;;;-0.94;100.00;100220.63;4928849;29;20545;-44
2022/12/10 00:29:13;;;;;;;29.42;13.82;;;;;;;-0.93;100.00;100222.28;4929702;29;20059;-42
2022/12/10 00:31:40;;;;;;;31.65;15.10;;;;;;;-0.90;100.00;100215.47;4912461;29;20521;-42
2022/12/10 00:34:09;;;;;;;40.40;15.45;;;;;;;-0.88;100.00;100224.94;4929583;29;20043;-42
2022/12/10 00:36:48;;;;;;;37.60;13.15;;;;;;;-0.85;100.00;100218.13;4927272;29;20058;-42
2022/12/10 00:39:20;;;;;;;33.70;14.50;;;;;;;-0.82;100.00;100217.56;4925458;29;20561;-42
2022/12/10 00:41:47;;;;;;;42.85;14.80;;;;;;;-0.79;100.00;100227.84;4928826;29;20039;-41
2022/12/10 00:44:15;;;;;;;38.72;14.38;;;;;;;-0.78;100.00;100218.63;4932485;29;20051;-41
2022/12/10 00:46:42;;;;;;;38.53;15.75;;;;;;;-0.77;100.00;100215.59;4927590;29;20102;-42
2022/12/10 00:49:09;;;;;;;32.08;15.23;;;;;;;-0.73;100.00;100222.09;4927056;29;20529;-42
2022/12/10 00:51:37;;;;;;;33.25;14.73;;;;;;;-0.71;100.00;100208.22;4927231;29;20059;-42
2022/12/10 00:54:04;;;;;;;36.90;13.90;;;;;;;-0.70;100.00;100205.25;4930118;29;20063;-46
2022/12/10 00:56:32;;;;;;;40.83;15.27;;;;;;;-0.69;100.00;100206.06;4927158;29;20138;-43
2022/12/10 00:58:59;;;;;;;45.92;16.15;;;;;;;-0.69;100.00;100206.84;4929248;29;20058;-41
2022/12/10 01:01:32;;;;;;;36.85;17.20;;;;;;;-0.67;100.00;100201.97;4930239;29;20073;-42
2022/12/10 01:04:05;;;;;;;36.70;15.15;;;;;;;-0.65;100.00;100210.63;4935679;29;20055;-41
2022/12/10 01:06:34;;;;;;;43.35;15.77;;;;;;;-0.63;100.00;100203.00;4928516;29;20513;-41
2022/12/10 01:09:05;;;;;;;37.03;16.10;;;;;;;-0.62;100.00;100207.34;4941928;29;20054;-42
2022/12/10 01:11:36;;;;;;;40.00;13.23;;;;;;;-0.62;100.00;100211.97;4925068;29;20072;-42
2022/12/10 01:14:06;;;;;;;44.72;17.08;;;;;;;-0.61;100.00;100211.66;4928206;29;20097;-42
2022/12/10 01:16:33;;;;;;;44.78;16.15;;;;;;;-0.60;100.00;100217.94;4934056;29;20046;-41
2022/12/10 01:19:00;;;;;;;38.10;15.82;;;;;;;-0.62;100.00;100218.22;4928551;29;21172;-45
2022/12/10 01:21:28;;;;;;;42.75;16.08;;;;;;;-0.60;100.00;100209.78;4929655;29;20055;-43
2022/12/10 01:23:58;;;;;;;42.92;17.00;;;;;;;-0.58;100.00;100217.66;4929212;29;20204;-42
2022/12/10 01:26:30;;;;;;;43.63;16.50;;;;;;;-0.57;100.00;100219.25;4928219;29;20036;-46
2022/12/10 01:28:57;;;;;;;46.60;17.85;;;;;;;-0.57;100.00;100213.81;4929303;29;20040;-41
2022/12/10 01:31:28;;;;;;;48.30;18.83;;;;;;;-0.56;100.00;100210.03;4928883;29;20062;-41
2022/12/10 01:33:57;;;;;;;49.38;19.27;;;;;;;-0.56;100.00;100188.28;4928602;29;20115;-45
2022/12/10 01:36:33;;;;;;;57.03;19.40;;;;;;;-0.56;100.00;100199.16;4927701;29;20128;-41
2022/12/10 01:39:03;;;;;;;43.05;16.90;;;;;;;-0.58;100.00;100198.63;4929203;29;20055;-40
2022/12/10 01:41:34;;;;;;;47.65;18.85;;;;;;;-0.59;100.00;100205.16;4928591;29;20074;-41
2022/12/10 01:44:24;;;;;;;49.50;17.85;;;;;;;-0.59;100.00;100205.16;4928815;29;20303;-42
2022/12/10 01:46:54;;;;;;;43.22;17.25;;;;;;;-0.61;100.00;100203.50;4927830;29;20921;-43
2022/12/10 01:49:25;;;;;;;47.03;19.75;;;;;;;-0.59;100.00;100194.28;4928420;29;20048;-42
2022/12/10 01:51:55;;;;;;;51.38;19.10;;;;;;;-0.61;100.00;100198.09;4919852;29;20059;-42
2022/12/10 01:54:27;;;;;;;56.00;19.80;;;;;;;-0.61;100.00;100198.09;4931569;29;20107;-41
2022/12/10 01:57:21;;;;;;;51.72;20.05;;;;;;;-0.59;100.00;100194.28;4936582;29;20512;-42
2022/12/10 01:59:56;;;;;;;37.22;17.35;;;;;;;-0.58;100.00;100193.19;4927976;29;20063;-42
2022/12/10 02:02:34;;;;;;;48.88;20.40;;;;;;;-0.61;100.00;100198.09;4928545;29;20079;-42
2022/12/10 02:05:14;;;;;;;43.20;17.52;;;;;;;-0.60;100.00;100198.91;4925350;29;20059;-42
2022/12/10 02:08:16;;;;;;;53.88;17.30;;;;;;;-0.58;100.00;100187.75;4927503;29;20048;-41
2022/12/10 02:11:04;;;;;;;50.75;19.33;;;;;;;-0.58;100.00;100193.97;4928496;29;20055;-42
2022/12/10 02:13:55;;;;;;;47.70;18.77;;;;;;;-0.59;100.00;100199.72;4925694;29;20051;-42
2022/12/10 02:16:37;;;;;;;46.42;17.98;;;;;;;-0.61;100.00;100195.34;4927436;29;20474;-43
2022/12/10 02:19:19;;;;;;;40.40;18.58;;;;;;;-0.61;100.00;100198.09;4914659;29;20057;-43
2022/12/10 02:21:49;;;;;;;55.03;23.83;;;;;;;-0.59;100.00;100200.53;4932413;29;20050;-42
2022/12/10 02:24:23;;;;;;;81.97;32.50;;;;;;;-0.57;100.00;100192.06;4927047;29;20054;-42
2022/12/10 02:26:54;;;;;;;196.25;78.75;;;;;;;-0.57;100.00;100189.34;4928066;29;20498;-42
2022/12/10 02:29:24;;;;;;;149.33;59.40;;;;;;;-0.57;100.00;100186.63;4928449;29;20047;-42
2022/12/10 02:32:14;;;;;;;278.15;111.43;;;;;;;-0.55;100.00;100196.13;4928174;29;20134;-43
2022/12/10 02:34:46;;;;;;;276.15;122.80;;;;;;;-0.53;100.00;100187.72;4920013;29;20058;-41
2022/12/10 02:37:20;;;;;;;101.57;44.60;;;;;;;-0.53;100.00;100182.28;4928074;29;20048;-43
2022/12/10 02:39:52;;;;;;;106.97;49.38;;;;;;;-0.52;100.00;100183.88;4928434;29;20072;-41
2022/12/10 02:42:21;;;;;;;54.22;25.23;;;;;;;-0.54;100.00;100192.31;4905640;29;20048;-43
2022/12/10 02:44:49;;;;;;;63.00;29.50;;;;;;;-0.54;100.00;100186.06;4925752;29;20055;-41
2022/12/10 02:47:18;;;;;;;66.72;31.50;;;;;;;-0.53;100.00;100193.16;4927596;29;20127;-42
2022/12/10 02:49:49;;;;;;;47.15;24.40;;;;;;;-0.51;100.00;100190.94;4928268;29;20048;-42
2022/12/10 02:52:19;;;;;;;54.83;28.77;;;;;;;-0.52;100.00;100194.75;4928239;29;20487;-42
2022/12/10 02:54:49;;;;;;;53.95;24.65;;;;;;;-0.51;100.00;100185.50;4927428;29;20056;-43
2022/12/10 02:57:46;;;;;;;36.83;18.90;;;;;;;-0.54;100.00;100181.47;4928094;29;20052;-42
2022/12/10 03:02:50;;;;;;;50.60;22.55;;;;;;;-0.55;100.00;100185.25;4954364;23;20083;-40
2022/12/10 03:05:26;;;;;;;43.97;21.77;;;;;;;-0.54;100.00;100180.63;4927697;29;20508;-40
2022/12/10 03:08:01;;;;;;;59.00;25.85;;;;;;;-0.54;100.00;100180.63;4929145;29;20446;-40
2022/12/10 03:10:35;;;;;;;46.00;20.38;;;;;;;-0.54;100.00;100181.47;4930695;29;20051;-41
2022/12/10 03:13:07;;;;;;;46.20;20.95;;;;;;;-0.55;100.00;100185.25;4932663;29;20040;-41
2022/12/10 03:15:36;;;;;;;;;;;;;;;-0.55;100.00;100179.81;4931976;29;20083;-40
2022/12/10 03:18:04;;;;;;;43.72;18.85;;;;;;;-0.55;100.00;100184.44;4931911;29;20340;-40
2022/12/10 03:20:38;;;;;;;41.83;19.50;;;;;;;-0.54;100.00;100175.19;4931538;29;20054;-41
2022/12/10 03:23:09;;;;;;;45.65;19.42;;;;;;;-0.54;100.00;100176.00;4915301;29;20052;-41
2022/12/10 03:25:38;;;;;;;42.78;18.85;;;;;;;-0.54;100.00;100180.63;4931300;29;20372;-40
2022/12/10 03:28:07;;;;;;;37.45;18.30;;;;;;;-0.56;100.00;100172.78;4931950;29;20520;-44
2022/12/10 03:30:36;;;;;;;39.85;17.55;;;;;;;-0.59;100.00;100172.53;4932208;29;20411;-44
2022/12/10 03:33:04;;;;;;;41.25;18.15;;;;;;;-0.61;100.00;100170.91;4931753;29;20063;-42
2022/12/10 03:35:32;;;;;;;34.28;15.52;;;;;;;-0.62;100.00;100165.75;4928873;29;20390;-41
2022/12/10 03:37:58;;;;;;;37.88;17.83;;;;;;;-0.65;100.00;100164.41;4930056;29;20147;-41
2022/12/10 03:40:29;;;;;;;44.85;19.13;;;;;;;-0.65;100.00;100158.16;4930933;29;20391;-40
2022/12/10 03:42:56;;;;;;;50.53;22.52;;;;;;;-0.66;100.00;100161.97;4930431;29;20405;-41
2022/12/10 03:45:22;;;;;;;45.75;19.83;;;;;;;-0.65;100.00;100164.41;4929070;29;20544;-40
2022/12/10 03:47:49;;;;;;;44.60;20.40;;;;;;;-0.63;100.00;100159.50;4929933;29;20056;-40
2022/12/10 03:50:16;;;;;;;38.70;18.50;;;;;;;-0.63;100.00;100155.97;4931217;29;20043;-40
2022/12/10 03:52:43;;;;;;;43.20;18.08;;;;;;;-0.62;100.00;100163.84;4930564;29;20098;-40
2022/12/10 03:55:10;;;;;;;42.40;20.83;;;;;;;-0.59;100.00;100161.66;4929667;29;20052;-41
2022/12/10 03:57:37;;;;;;;39.50;17.95;;;;;;;-0.59;100.00;100157.03;4930488;29;20083;-41
2022/12/10 04:00:05;;;;;;;48.58;18.90;;;;;;;-0.59;100.00;100161.66;4929761;29;20035;-41
2022/12/10 04:02:33;;;;;;;38.45;18.38;;;;;;;-0.59;100.00;100161.66;4937388;29;20059;-40
2022/12/10 04:04:59;;;;;;;37.83;17.33;;;;;;;-0.57;100.00;100167.59;4933119;29;20044;-40
2022/12/10 04:07:26;;;;;;;44.75;20.63;;;;;;;-0.55;100.00;100159.97;4934861;29;20059;-40
2022/12/10 04:09:53;;;;;;;42.75;20.30;;;;;;;-0.54;100.00;100169.75;4934989;29;20083;-40
2022/12/10 04:12:20;;;;;;;44.33;17.58;;;;;;;-0.55;100.00;100160.78;4931538;29;20055;-40
2022/12/10 04:17:36;;;;;;;45.15;18.55;;;;;;;-0.55;100.00;100149.91;4941401;29;20040;-40
2022/12/10 04:20:03;;;;;;;46.75;19.05;;;;;;;-0.54;100.00;100148.00;4936183;29;20391;-41
2022/12/10 04:28:00;;;;;;;39.88;18.05;;;;;;;-0.52;100.00;100137.66;4934334;29;20050;-45
2022/12/10 04:30:27;;;;;;;42.05;18.88;;;;;;;-0.51;100.00;100136.56;4935282;29;20056;-40
2022/12/10 04:32:53;;;;;;;43.92;19.75;;;;;;;-0.52;100.00;100137.66;4934879;29;20078;-40
2022/12/10 04:35:20;;;;;;;41.88;18.30;;;;;;;-0.51;100.00;100150.16;4936189;29;20544;-47
2022/12/10 04:37:46;;;;;;;35.25;17.35;;;;;;;-0.51;100.00;100136.56;4938589;29;20051;-41
2022/12/10 04:40:13;;;;;;;40.15;16.85;;;;;;;-0.51;100.00;100139.28;4942201;29;20048;-40
2022/12/10 04:42:40;;;;;;;39.53;18.15;;;;;;;-0.50;100.00;100139.00;4929900;29;20081;-42
2022/12/10 04:45:07;;;;;;;42.17;20.48;;;;;;;-0.51;100.00;100136.56;4932370;29;20058;-40
2022/12/10 04:47:33;;;;;;;47.20;19.38;;;;;;;-0.51;100.00;100136.56;4931599;29;20504;-40
2022/12/10 04:50:00;;;;;;;44.13;17.77;;;;;;;-0.51;100.00;100136.56;4939875;29;20085;-41
2022/12/10 04:52:27;;;;;;;39.20;19.58;;;;;;;-0.51;100.00;100136.56;4933224;29;20141;-41
2022/12/10 04:54:53;;;;;;;39.78;18.65;;;;;;;-0.53;100.00;100127.91;4934781;29;20048;-44
2022/12/10 04:57:20;;;;;;;47.72;19.98;;;;;;;-0.53;100.00;100130.63;4938346;29;20053;-40
2022/12/10 04:59:47;;;;;;;40.67;18.70;;;;;;;-0.55;100.00;100125.44;4941636;29;20043;-41
2022/12/10 05:02:13;;;;;;;42.85;18.55;;;;;;;-0.56;100.00;100120.31;4935080;29;20048;-41
2022/12/10 05:04:40;;;;;;;44.83;18.58;;;;;;;-0.61;100.00;100130.13;4932068;29;20048;-45
2022/12/10 05:07:07;;;;;;;38.42;18.95;;;;;;;-0.64;100.00;100122.53;4929736;29;20055;-41
2022/12/10 05:09:34;;;;;;;46.97;18.63;;;;;;;-0.66;100.00;100123.91;4919496;29;20048;-40
2022/12/10 05:12:00;;;;;;;44.25;19.75;;;;;;;-0.69;100.00;100124.53;4929318;29;20571;-41
2022/12/10 05:14:30;;;;;;;41.85;20.63;;;;;;;-0.73;100.00;100129.72;4927861;29;20048;-40
2022/12/10 05:16:56;;;;;;;41.58;19.58;;;;;;;-0.76;100.00;100130.28;4928193;29;20055;-43
2022/12/10 05:19:25;;;;;;;43.95;19.58;;;;;;;-0.78;100.00;100124.31;4927653;29;20509;-40
2022/12/10 05:24:38;;;;;;;38.42;19.58;;;;;;;-0.78;100.00;100123.50;4920118;29;20075;-40
2022/12/10 05:27:05;;;;;;;40.10;17.38;;;;;;;-0.78;100.00;100121.59;4930241;29;20466;-41
2022/12/10 05:29:32;;;;;;;34.22;18.13;;;;;;;-0.75;100.00;100126.47;4929764;29;20413;-40
2022/12/10 05:31:59;;;;;;;35.30;17.55;;;;;;;-0.74;100.00;100125.34;4929846;29;20409;-40
2022/12/10 05:34:26;;;;;;;41.90;19.58;;;;;;;-0.73;100.00;100121.56;4929167;29;20051;-40
2022/12/10 05:36:53;;;;;;;40.85;17.05;;;;;;;-0.70;100.00;100126.41;4912755;29;20051;-40
2022/12/10 05:39:19;;;;;;;34.95;17.00;;;;;;;-0.68;100.00;100126.94;4929364;29;20525;-42
2022/12/10 05:41:46;;;;;;;37.28;18.33;;;;;;;-0.67;100.00;100117.69;4929598;29;20055;-40
2022/12/10 05:44:13;;;;;;;41.47;18.48;;;;;;;-0.63;100.00;100117.91;4927569;29;20111;-41
2022/12/10 05:46:40;;;;;;;38.90;17.75;;;;;;;-0.61;100.00;100123.91;4927906;29;20598;-40
2022/12/10 05:49:07;;;;;;;46.45;18.92;;;;;;;-0.61;100.00;100116.53;4926592;29;20047;-40
2022/12/10 05:51:36;;;;;;;43.08;18.63;;;;;;;-0.59;100.00;100121.69;4916074;29;20075;-40
2022/12/10 05:54:04;;;;;;;44.22;18.77;;;;;;;-0.58;100.00;100117.88;4927754;29;20561;-41
2022/12/10 05:56:31;;;;;;;38.88;18.08;;;;;;;-0.57;100.00;100122.22;4929042;29;20051;-41
2022/12/10 05:59:00;;;;;;;42.42;19.02;;;;;;;-0.58;100.00;100128.72;4927236;29;20493;-40
2022/12/10 06:01:31;;;;;;;42.72;18.58;;;;;;;-0.57;100.00;100121.41;4927058;29;20047;-41
2022/12/10 06:04:00;;;;;;;44.40;19.13;;;;;;;-0.56;100.00;100112.16;4927259;29;20094;-40
2022/12/10 06:06:32;;;;;;;36.83;16.58;;;;;;;-0.56;100.00;100112.16;4927402;29;20417;-41
2022/12/10 06:08:58;;;;;;;44.47;18.95;;;;;;;-0.55;100.00;100116.47;4927650;29;20052;-40
2022/12/10 06:11:27;;;;;;;40.03;17.48;;;;;;;-0.54;100.00;100123.53;4927663;29;20036;-41
2022/12/10 06:13:55;;;;;;;39.78;17.95;;;;;;;-0.54;100.00;100120.81;4928835;29;20050;-40
2022/12/10 06:16:23;;;;;;;44.30;19.00;;;;;;;-0.55;100.00;100116.47;4928120;29;20054;-46
2022/12/10 06:18:52;;;;;;;39.25;17.15;;;;;;;-0.55;100.00;100119.19;4929034;29;20047;-40
2022/12/10 06:21:20;;;;;;;39.10;16.88;;;;;;;-0.55;100.00;100120.00;4927974;29;20044;-41
2022/12/10 06:23:51;;;;;;;37.20;18.88;;;;;;;-0.55;100.00;100124.63;4925200;29;20051;-40
2022/12/10 06:26:22;;;;;;;42.28;18.73;;;;;;;-0.57;100.00;100122.22;4926974;29;20036;-40
2022/12/10 06:28:49;;;;;;;40.90;17.33;;;;;;;-0.57;100.00;100126.84;4927739;29;20047;-41
2022/12/10 06:31:22;;;;;;;37.88;17.27;;;;;;;-0.56;100.00;100125.75;4926818;29;20082;-41
2022/12/10 06:33:49;;;;;;;41.17;18.42;;;;;;;-0.56;100.00;100128.47;4928700;29;20450;-41
2022/12/10 06:36:16;;;;;;;34.90;17.83;;;;;;;-0.57;100.00;100135.81;4928141;29;20051;-43
2022/12/10 06:38:43;;;;;;;40.03;17.77;;;;;;;-0.56;100.00;100133.91;4927620;29;20054;-40
2022/12/10 06:41:13;;;;;;;38.50;16.98;;;;;;;-0.56;100.00;100128.47;4928317;29;20043;-41
2022/12/10 06:43:40;;;;;;;30.95;15.80;;;;;;;-0.55;100.00;100130.88;4926548;29;20059;-41
2022/12/10 06:46:08;;;;;;;35.72;15.85;;;;;;;-0.53;100.00;100119.75;4928994;29;20118;-42
2022/12/10 06:48:35;;;;;;;36.72;17.00;;;;;;;-0.51;100.00;100129.22;4931025;29;20056;-40
2022/12/10 06:51:04;;;;;;;32.95;14.40;;;;;;;-0.51;100.00;100128.41;4932323;29;20489;-40
2022/12/10 06:53:33;;;;;;;39.65;17.55;;;;;;;-0.52;100.00;100124.06;4928694;29;20470;-40
2022/12/10 06:56:00;;;;;;;35.08;16.48;;;;;;;-0.52;100.00;100129.50;4928928;29;20055;-46
2022/12/10 06:58:31;;;;;;;40.25;17.13;;;;;;;-0.52;100.00;100122.16;4927788;29;20044;-41
2022/12/10 07:01:06;;;;;;;39.63;17.75;;;;;;;-0.52;100.00;100126.78;4929860;29;20094;-45
2022/12/10 07:03:33;;;;;;;33.78;16.92;;;;;;;-0.54;100.00;100126.25;4931491;29;20524;-46
2022/12/10 07:06:01;;;;;;;35.38;15.57;;;;;;;-0.54;100.00;100139.84;4930555;29;20541;-41
2022/12/10 07:08:28;;;;;;;33.55;15.15;;;;;;;-0.55;100.00;100132.78;4926322;29;20150;-40
2022/12/10 07:10:55;;;;;;;29.02;15.45;;;;;;;-0.54;100.00;100126.25;4931081;29;20051;-41
2022/12/10 07:13:23;;;;;;;34.97;14.35;;;;;;;-0.54;100.00;100131.69;4932050;29;20090;-47
2022/12/10 07:15:55;;;;;;;36.15;16.27;;;;;;;-0.54;100.00;100131.69;4931418;29;20055;-45
2022/12/10 07:18:22;;;;;;;26.83;15.38;;;;;;;-0.55;100.00;100138.22;4931022;29;20052;-41
2022/12/10 07:20:50;;;;;;;29.95;14.65;;;;;;;-0.55;100.00;100135.50;4929985;29;20791;-41
2022/12/10 07:23:18;;;;;;;28.23;13.13;;;;;;;-0.55;100.00;100135.50;4938981;29;20090;-40
2022/12/10 07:25:45;;;;;;;38.03;14.70;;;;;;;-0.55;100.00;100136.31;4933008;29;20047;-40
2022/12/10 07:28:12;;;;;;;28.13;13.00;;;;;;;-0.57;100.00;100133.09;4913539;29;20131;-40
2022/12/10 07:30:39;;;;;;;28.13;13.70;;;;;;;-0.58;100.00;100120.56;4932077;29;20645;-44
2022/12/10 07:33:05;;;;;;;29.88;13.05;;;;;;;-0.59;100.00;100135.28;4922463;29;20079;-40
2022/12/10 07:35:32;;;;;;;28.30;13.00;;;;;;;-0.58;100.00;100138.81;4931737;29;20051;-41
2022/12/10 07:37:58;;;;;;;30.52;13.30;;;;;;;-0.59;100.00;100137.19;4931689;29;20051;-40
2022/12/10 07:40:25;;;;;;;27.08;12.98;;;;;;;-0.59;100.00;100129.03;4930581;29;20054;-41
2022/12/10 07:42:52;;;;;;;30.10;14.13;;;;;;;-0.57;100.00;100127.66;4931824;29;20109;-41
2022/12/10 07:45:18;;;;;;;25.88;13.57;;;;;;;-0.57;100.00;100118.69;4932222;29;20044;-40
2022/12/10 07:47:45;;;;;;;32.05;13.95;;;;;;;-0.58;100.00;100114.34;4930969;29;20047;-47
2022/12/10 07:50:12;;;;;;;27.58;13.80;;;;;;;-0.58;100.00;100131.44;4930419;29;20043;-40
2022/12/10 07:52:38;;;;;;;29.58;14.30;;;;;;;-0.58;100.00;100136.09;4929762;29;20163;-41
2022/12/10 07:55:05;;;;;;;23.95;11.52;;;;;;;-0.57;100.00;100127.66;4928244;29;20689;-44
2022/12/10 07:57:32;;;;;;;32.97;13.57;;;;;;;-0.58;100.00;100125.22;4930583;29;20043;-40
2022/12/10 07:59:58;;;;;;;25.10;12.48;;;;;;;-0.56;100.00;100125.75;4930564;29;20099;-41
2022/12/10 08:02:25;;;;;;;25.60;12.77;;;;;;;-0.56;100.00;100131.19;4929531;29;20342;-40
2022/12/10 08:04:52;;;;;;;27.20;13.77;;;;;;;-0.57;100.00;100126.84;4928655;29;20052;-44
2022/12/10 08:07:18;;;;;;;31.02;13.23;;;;;;;-0.57;100.00;100118.69;4929151;29;20704;-41
2022/12/10 08:09:45;;;;;;;30.58;13.30;;;;;;;-0.59;100.00;100118.97;4930346;29;20146;-41
2022/12/10 08:12:12;;;;;;;29.65;12.88;;;;;;;-0.57;100.00;100124.13;4930814;29;20687;-41
2022/12/10 08:14:39;;;;;;;25.45;12.95;;;;;;;-0.57;100.00;100121.41;4929470;29;20249;-41
2022/12/10 08:17:05;;;;;;;29.95;12.20;;;;;;;-0.58;100.00;100130.66;4929181;29;20268;-40
2022/12/10 08:19:32;;;;;;;27.98;13.27;;;;;;;-0.61;100.00;100132.06;4928627;29;20051;-40
2022/12/10 08:21:59;;;;;;;33.30;14.35;;;;;;;-0.59;100.00;100131.75;4930573;29;20055;-40
2022/12/10 08:24:25;;;;;;;35.30;13.73;;;;;;;-0.57;100.00;100129.56;4928508;29;20048;-45
2022/12/10 08:26:52;;;;;;;30.33;15.10;;;;;;;-0.57;100.00;100121.41;4929448;29;20050;-40
2022/12/10 08:29:19;;;;;;;30.25;15.55;;;;;;;-0.54;100.00;100137.13;4929917;29;20413;-41
2022/12/10 08:31:45;;;;;;;29.63;13.90;;;;;;;-0.54;100.00;100137.97;4913145;29;20059;-41
2022/12/10 08:34:15;;;;;;;26.55;13.93;;;;;;;-0.56;100.00;100126.56;4928080;29;20054;-41
2022/12/10 08:36:42;;;;;;;43.08;15.98;;;;;;;-0.55;100.00;100133.59;4930695;29;20404;-43
2022/12/10 08:39:16;;;;;;;30.63;14.10;;;;;;;-0.57;100.00;100140.44;4930169;29;20151;-43
2022/12/10 08:41:46;;;;;;;30.67;13.05;;;;;;;-0.59;100.00;100137.19;4931426;29;20474;-40
2022/12/10 08:44:13;;;;;;;46.95;14.65;;;;;;;-0.57;100.00;100137.72;4913055;29;20048;-40
2022/12/10 08:46:41;;;;;;;31.75;13.50;;;;;;;-0.58;100.00;100131.44;4929617;29;20098;-40
2022/12/10 08:49:07;;;;;;;27.67;13.45;;;;;;;-0.57;100.00;100137.72;4929652;29;20398;-40
2022/12/10 08:51:34;;;;;;;23.35;12.43;;;;;;;-0.58;100.00;100142.31;4928390;29;20087;-40
2022/12/10 08:54:02;;;;;;;32.30;15.30;;;;;;;-0.57;100.00;100143.16;4927557;29;20047;-40
2022/12/10 08:56:28;;;;;;;28.38;13.27;;;;;;;-0.54;100.00;100150.72;4936548;29;20069;-40
2022/12/10 08:58:58;;;;;;;26.90;15.00;;;;;;;-0.54;100.00;100142.56;4922608;29;20501;-41
2022/12/10 09:01:24;;;;;;;30.38;13.75;;;;;;;-0.56;100.00;100145.59;4929158;29;20040;-40
2022/12/10 09:03:51;;;;;;;31.95;15.13;;;;;;;-0.53;100.00;100136.06;4933723;29;20130;-40
2022/12/10 09:06:21;;;;;;;33.83;15.55;;;;;;;-0.50;100.00;100143.63;4930804;29;20039;-41
2022/12/10 09:08:48;;;;;;;41.00;16.55;;;;;;;-0.48;100.00;100147.69;4930354;29;20048;-40
2022/12/10 09:11:20;;;;;;;29.10;13.85;;;;;;;-0.46;100.00;100152.84;4930864;29;20054;-40
2022/12/10 09:13:47;;;;;;;31.52;15.27;;;;;;;-0.50;100.00;100151.78;4930886;29;20075;-45
2022/12/10 09:16:14;;;;;;;27.23;14.25;;;;;;;-0.49;100.00;100148.78;4929848;29;20395;-44
2022/12/10 09:18:41;;;;;;;28.60;13.15;;;;;;;-0.49;100.00;100150.69;4930254;29;20047;-41
2022/12/10 09:21:12;;;;;;;29.17;15.13;;;;;;;-0.47;100.00;100153.91;4929283;29;20044;-41
2022/12/10 09:23:39;;;;;;;35.25;14.65;;;;;;;-0.47;100.00;100153.91;4929938;29;20083;-41
2022/12/10 09:26:09;;;;;;;30.42;15.52;;;;;;;-0.47;100.00;100159.34;4929858;29;20485;-41
2022/12/10 09:28:36;;;;;;;29.35;14.27;;;;;;;-0.48;100.00;100152.31;4929893;29;20143;-43
2022/12/10 09:31:06;;;;;;;30.17;15.50;;;;;;;-0.48;100.00;100164.00;4928852;29;20059;-41
2022/12/10 09:33:42;;;;;;;31.63;14.85;;;;;;;-0.48;100.00;100153.13;4930126;29;20070;-41
2022/12/10 09:36:10;;;;;;;27.85;14.50;;;;;;;-0.50;100.00;100160.75;4930416;29;20504;-41
2022/12/10 09:38:40;;;;;;;46.83;21.38;;;;;;;-0.50;100.00;100159.94;4929558;29;20194;-41
2022/12/10 09:41:43;;;;;;;43.08;17.00;;;;;;;-0.49;100.00;100156.13;4929026;29;20040;-41
2022/12/10 09:44:25;;;;;;;43.00;17.15;;;;;;;-0.46;100.00;100167.25;4929250;29;20048;-41
2022/12/10 09:46:55;;;;;;;30.17;14.50;;;;;;;-0.46;100.00;100161.81;4920341;29;20508;-41
2022/12/10 09:50:06;;;;;;;32.25;13.85;;;;;;;-0.44;100.00;100164.22;4919728;29;20522;-41
2022/12/10 09:52:43;;;;;;;33.13;14.88;;;;;;;-0.39;100.00;100156.00;4923929;29;20610;-41
2022/12/10 09:55:19;;;;;;;30.13;14.35;;;;;;;-0.40;100.00;100154.41;4923628;29;20056;-42
2022/12/10 09:57:48;;;;;;;33.97;14.38;;;;;;;-0.37;100.00;100156.56;4920580;29;20564;-41
2022/12/10 10:00:21;;;;;;;23.13;12.57;;;;;;;-0.39;100.00;100165.00;4927363;29;20059;-40
2022/12/10 10:02:50;;;;;;;45.25;16.20;;;;;;;-0.35;100.00;100151.63;4912483;29;20060;-41
2022/12/10 10:05:26;;;;;;;27.50;14.32;;;;;;;-0.34;100.00;100158.69;4920238;29;20119;-41
2022/12/10 10:07:56;;;;;;;29.95;14.07;;;;;;;-0.31;100.00;100163.53;4926331;29;20562;-41
2022/12/10 10:10:32;;;;;;;33.90;13.95;;;;;;;-0.32;100.00;100168.16;4925989;29;20039;-47
2022/12/10 10:13:22;;;;;;;24.98;12.70;;;;;;;-0.32;100.00;100161.94;4924600;29;20524;-41
2022/12/10 10:15:49;;;;;;;28.25;14.02;;;;;;;-0.31;100.00;100166.25;4902854;29;20605;-43
2022/12/10 10:18:32;;;;;;;23.75;13.48;;;;;;;-0.29;100.00;100170.31;4919620;29;20458;-42
2022/12/10 10:21:00;;;;;;;26.17;11.93;;;;;;;-0.28;100.00;100162.97;4928607;29;20359;-41
2022/12/10 10:23:27;;;;;;;22.67;10.30;;;;;;;-0.27;100.00;100172.75;4931159;29;20052;-41
2022/12/10 10:25:53;;;;;;;22.45;10.63;;;;;;;-0.25;100.00;100170.56;4930457;29;20055;-43
2022/12/10 10:28:22;;;;;;;24.23;12.05;;;;;;;-0.26;100.00;100172.47;4940458;29;20062;-41
2022/12/10 10:30:52;;;;;;;23.77;12.13;;;;;;;-0.24;100.00;100178.41;4930378;29;20420;-41
2022/12/10 10:33:19;;;;;;;22.65;11.05;;;;;;;-0.23;100.00;100174.63;4927413;29;20048;-41
2022/12/10 10:35:53;;;;;;;20.75;11.65;;;;;;;-0.22;100.00;100183.59;4930593;29;20047;-48
2022/12/10 10:38:23;;;;;;;28.00;12.52;;;;;;;-0.20;100.00;100170.50;4917182;29;20104;-42
2022/12/10 10:40:53;;;;;;;20.88;11.30;;;;;;;-0.17;100.00;100172.66;4927385;29;20043;-41
2022/12/10 10:43:25;;;;;;;25.27;11.93;;;;;;;-0.19;100.00;100169.41;4925809;29;20048;-41
2022/12/10 10:46:01;;;;;;;35.17;13.50;;;;;;;-0.14;100.00;100180.25;4928883;29;20086;-41
2022/12/10 10:48:29;;;;;;;26.88;13.27;;;;;;;-0.12;100.00;100180.75;4922351;29;20047;-47
2022/12/10 10:51:11;;;;;;;25.48;11.27;;;;;;;-0.08;100.00;100192.69;4926742;29;20044;-41
2022/12/10 10:53:38;;;;;;;27.50;12.48;;;;;;;-0.09;100.00;100182.91;4916994;29;20059;-41
2022/12/10 10:56:08;;;;;;;24.65;11.95;;;;;;;-0.10;100.00;100186.72;4923652;29;20151;-41
2022/12/10 10:58:35;;;;;;;21.85;11.18;;;;;;;-0.10;100.00;100181.28;4945317;29;20469;-44
2022/12/10 11:01:05;;;;;;;30.35;13.57;;;;;;;-0.10;100.00;100186.72;4925363;29;20134;-41
2022/12/10 11:03:35;;;;;;;22.90;10.55;;;;;;;-0.06;100.00;100187.78;4926117;29;20056;-41
2022/12/10 11:06:07;;;;;;;25.88;11.23;;;;;;;-0.04;100.00;100186.38;4927442;29;20055;-41
2022/12/10 11:08:37;;;;;;;21.98;12.27;;;;;;;-0.05;100.00;100184.75;4924896;29;20115;-45
2022/12/10 11:11:20;;;;;;;27.30;12.75;;;;;;;0.01;100.00;100182.78;4927963;29;20086;-47
2022/12/10 11:13:47;;;;;;;23.60;11.35;;;;;;;0.06;100.00;100180.00;4919830;29;20048;-46
2022/12/10 11:16:22;;;;;;;21.52;11.55;;;;;;;0.09;100.00;100179.44;4925595;29;20098;-41
2022/12/10 11:18:56;;;;;;;26.98;12.07;;;;;;;0.13;100.00;100191.38;4927562;29;20044;-41
2022/12/10 11:21:23;;;;;;;30.00;14.23;;;;;;;0.17;100.00;100189.69;4926352;29;20070;-41
2022/12/10 11:23:53;;;;;;;24.20;13.90;;;;;;;0.20;100.00;100183.66;4926203;29;20039;-47
2022/12/10 11:26:57;;;;;;;27.85;13.52;;;;;;;0.22;100.00;100188.81;4927392;29;20043;-47
2022/12/10 11:29:42;;;;;;;29.83;16.08;;;;;;;0.20;100.00;100180.13;4922381;29;20079;-44